sensor_id;sensor_type;location;lat;lon;timestamp;P1;durP1;ratioP1;P2;durP2;ratioP2
3379;SDS011;1703;51.964;7.642;2022-08-01T00:01:46;11.50;;;8.50;;
3379;SDS011;1703;51.964;7.642;2022-08-01T00:04:13;14.03;;;9.63;;
3379;SDS011;1703;51.964;7.642;2022-08-01T00:06:41;10.87;;;9.13;;
3379;SDS011;1703;51.964;7.642;2022-08-01T00:09:08;14.37;;;9.53;;
3379;SDS011;1703;51.964;7.642;2022-08-01T00:11:34;13.80;;;10.03;;
3379;SDS011;1703;51.964;7.642;2022-08-01T00:14:01;13.60;;;8.73;;
3379;SDS011;1703;51.964;7.642;2022-08-01T00:16:28;11.30;;;8.73;;
3379;SDS011;1703;51.964;7.642;2022-08-01T00:18:55;10.60;;;9.40;;
3379;SDS011;1703;51.964;7.642;2022-08-01T00:21:22;11.67;;;9.50;;
3379;SDS011;1703;51.964;7.642;2022-08-01T00:23:50;11.80;;;8.93;;
3379;SDS011;1703;51.964;7.642;2022-08-01T00:26:17;11.63;;;9.30;;
3379;SDS011;1703;51.964;7.642;2022-08-01T00:28:44;12.07;;;8.20;;
3379;SDS011;1703;51.964;7.642;2022-08-01T00:31:11;10.00;;;8.50;;
3379;SDS011;1703;51.964;7.642;2022-08-01T00:33:37;11.20;;;8.40;;
3379;SDS011;1703;51.964;7.642;2022-08-01T00:36:04;11.93;;;8.57;;
3379;SDS011;1703;51.964;7.642;2022-08-01T00:38:31;12.30;;;7.80;;
3379;SDS011;1703;51.964;7.642;2022-08-01T00:40:59;13.83;;;8.43;;
3379;SDS011;1703;51.964;7.642;2022-08-01T00:43:26;11.20;;;9.23;;
3379;SDS011;1703;51.964;7.642;2022-08-01T00:45:53;12.10;;;9.27;;
3379;SDS011;1703;51.964;7.642;2022-08-01T00:48:20;13.90;;;9.77;;
3379;SDS011;1703;51.964;7.642;2022-08-01T00:50:46;9.40;;;8.40;;
3379;SDS011;1703;51.964;7.642;2022-08-01T00:53:13;16.27;;;10.53;;
3379;SDS011;1703;51.964;7.642;2022-08-01T00:55:40;13.47;;;10.90;;
3379;SDS011;1703;51.964;7.642;2022-08-01T00:58:09;12.27;;;9.67;;
3379;SDS011;1703;51.964;7.642;2022-08-01T01:00:36;15.27;;;9.50;;
3379;SDS011;1703;51.964;7.642;2022-08-01T01:03:03;11.80;;;9.23;;
3379;SDS011;1703;51.964;7.642;2022-08-01T01:05:29;12.27;;;9.70;;
3379;SDS011;1703;51.964;7.642;2022-08-01T01:08:02;15.33;;;8.83;;
3379;SDS011;1703;51.964;7.642;2022-08-01T01:10:36;15.80;;;10.20;;
3379;SDS011;1703;51.964;7.642;2022-08-01T01:13:11;14.17;;;11.60;;
3379;SDS011;1703;51.964;7.642;2022-08-01T01:15:46;12.23;;;10.27;;
3379;SDS011;1703;51.964;7.642;2022-08-01T01:18:18;14.60;;;9.70;;
3379;SDS011;1703;51.964;7.642;2022-08-01T01:20:50;15.97;;;11.70;;
3379;SDS011;1703;51.964;7.642;2022-08-01T01:23:38;16.40;;;10.30;;
3379;SDS011;1703;51.964;7.642;2022-08-01T01:26:23;17.60;;;10.60;;
3379;SDS011;1703;51.964;7.642;2022-08-01T01:29:03;14.67;;;10.17;;
3379;SDS011;1703;51.964;7.642;2022-08-01T01:31:40;14.10;;;9.80;;
3379;SDS011;1703;51.964;7.642;2022-08-01T01:34:11;13.80;;;11.00;;
3379;SDS011;1703;51.964;7.642;2022-08-01T01:36:39;12.93;;;9.80;;
3379;SDS011;1703;51.964;7.642;2022-08-01T01:39:06;13.87;;;9.80;;
3379;SDS011;1703;51.964;7.642;2022-08-01T01:41:34;14.40;;;9.93;;
3379;SDS011;1703;51.964;7.642;2022-08-01T01:44:05;11.73;;;10.17;;
3379;SDS011;1703;51.964;7.642;2022-08-01T01:46:34;14.87;;;9.77;;
3379;SDS011;1703;51.964;7.642;2022-08-01T01:49:02;13.00;;;10.30;;
3379;SDS011;1703;51.964;7.642;2022-08-01T01:51:31;15.60;;;9.67;;
3379;SDS011;1703;51.964;7.642;2022-08-01T01:53:59;13.50;;;10.03;;
3379;SDS011;1703;51.964;7.642;2022-08-01T01:56:28;10.70;;;9.60;;
3379;SDS011;1703;51.964;7.642;2022-08-01T01:58:57;13.87;;;8.70;;
3379;SDS011;1703;51.964;7.642;2022-08-01T02:01:29;15.27;;;9.87;;
3379;SDS011;1703;51.964;7.642;2022-08-01T02:04:00;13.70;;;9.30;;
3379;SDS011;1703;51.964;7.642;2022-08-01T02:06:28;16.33;;;10.37;;
3379;SDS011;1703;51.964;7.642;2022-08-01T02:08:57;15.57;;;11.80;;
3379;SDS011;1703;51.964;7.642;2022-08-01T02:11:26;11.83;;;9.20;;
3379;SDS011;1703;51.964;7.642;2022-08-01T02:13:55;23.70;;;9.37;;
3379;SDS011;1703;51.964;7.642;2022-08-01T02:16:26;18.80;;;10.00;;
3379;SDS011;1703;51.964;7.642;2022-08-01T02:18:55;12.20;;;10.20;;
3379;SDS011;1703;51.964;7.642;2022-08-01T02:21:25;12.00;;;9.00;;
3379;SDS011;1703;51.964;7.642;2022-08-01T02:23:54;15.77;;;11.30;;
3379;SDS011;1703;51.964;7.642;2022-08-01T02:26:26;13.50;;;10.50;;
3379;SDS011;1703;51.964;7.642;2022-08-01T02:28:55;15.13;;;10.10;;
3379;SDS011;1703;51.964;7.642;2022-08-01T02:31:25;12.30;;;9.20;;
3379;SDS011;1703;51.964;7.642;2022-08-01T02:33:58;13.40;;;10.40;;
3379;SDS011;1703;51.964;7.642;2022-08-01T02:36:28;13.30;;;10.60;;
3379;SDS011;1703;51.964;7.642;2022-08-01T02:38:56;12.27;;;9.87;;
3379;SDS011;1703;51.964;7.642;2022-08-01T02:41:25;14.20;;;9.60;;
3379;SDS011;1703;51.964;7.642;2022-08-01T02:43:56;14.50;;;9.80;;
3379;SDS011;1703;51.964;7.642;2022-08-01T02:46:28;12.93;;;9.90;;
3379;SDS011;1703;51.964;7.642;2022-08-01T02:49:01;13.53;;;9.07;;
3379;SDS011;1703;51.964;7.642;2022-08-01T02:51:31;12.37;;;9.40;;
3379;SDS011;1703;51.964;7.642;2022-08-01T02:54:01;13.30;;;8.90;;
3379;SDS011;1703;51.964;7.642;2022-08-01T02:56:31;13.83;;;8.83;;
3379;SDS011;1703;51.964;7.642;2022-08-01T02:59:02;12.43;;;10.07;;
3379;SDS011;1703;51.964;7.642;2022-08-01T03:01:32;11.57;;;8.70;;
3379;SDS011;1703;51.964;7.642;2022-08-01T03:04:03;15.10;;;7.73;;
3379;SDS011;1703;51.964;7.642;2022-08-01T03:06:31;20.03;;;10.57;;
3379;SDS011;1703;51.964;7.642;2022-08-01T03:08:58;10.70;;;8.93;;
3379;SDS011;1703;51.964;7.642;2022-08-01T03:11:27;15.83;;;9.40;;
3379;SDS011;1703;51.964;7.642;2022-08-01T03:13:56;13.63;;;8.50;;
3379;SDS011;1703;51.964;7.642;2022-08-01T03:16:27;21.00;;;9.93;;
3379;SDS011;1703;51.964;7.642;2022-08-01T03:18:56;10.70;;;8.47;;
3379;SDS011;1703;51.964;7.642;2022-08-01T03:21:26;16.30;;;9.60;;
3379;SDS011;1703;51.964;7.642;2022-08-01T03:23:55;13.67;;;8.67;;
3379;SDS011;1703;51.964;7.642;2022-08-01T03:26:26;18.17;;;10.40;;
3379;SDS011;1703;51.964;7.642;2022-08-01T03:28:55;11.27;;;8.77;;
3379;SDS011;1703;51.964;7.642;2022-08-01T03:31:25;13.13;;;9.00;;
3379;SDS011;1703;51.964;7.642;2022-08-01T03:36:26;13.63;;;8.40;;
3379;SDS011;1703;51.964;7.642;2022-08-01T03:38:57;17.53;;;7.33;;
3379;SDS011;1703;51.964;7.642;2022-08-01T03:41:27;9.67;;;7.03;;
3379;SDS011;1703;51.964;7.642;2022-08-01T03:44:01;11.83;;;8.43;;
3379;SDS011;1703;51.964;7.642;2022-08-01T03:46:33;9.70;;;7.37;;
3379;SDS011;1703;51.964;7.642;2022-08-01T03:49:06;13.10;;;7.83;;
3379;SDS011;1703;51.964;7.642;2022-08-01T03:51:45;15.53;;;8.77;;
3379;SDS011;1703;51.964;7.642;2022-08-01T03:54:15;11.80;;;7.83;;
3379;SDS011;1703;51.964;7.642;2022-08-01T03:56:43;9.20;;;7.20;;
3379;SDS011;1703;51.964;7.642;2022-08-01T03:59:14;11.47;;;6.97;;
3379;SDS011;1703;51.964;7.642;2022-08-01T04:01:43;8.37;;;6.80;;
3379;SDS011;1703;51.964;7.642;2022-08-01T04:04:11;14.00;;;7.07;;
3379;SDS011;1703;51.964;7.642;2022-08-01T04:06:38;12.40;;;7.97;;
3379;SDS011;1703;51.964;7.642;2022-08-01T04:09:07;6.63;;;5.93;;
3379;SDS011;1703;51.964;7.642;2022-08-01T04:11:34;9.93;;;5.87;;
3379;SDS011;1703;51.964;7.642;2022-08-01T04:14:01;11.43;;;6.53;;
3379;SDS011;1703;51.964;7.642;2022-08-01T04:16:28;10.23;;;7.23;;
3379;SDS011;1703;51.964;7.642;2022-08-01T04:18:55;8.50;;;5.43;;
3379;SDS011;1703;51.964;7.642;2022-08-01T04:21:23;11.50;;;5.30;;
3379;SDS011;1703;51.964;7.642;2022-08-01T04:23:52;8.17;;;6.17;;
3379;SDS011;1703;51.964;7.642;2022-08-01T04:26:23;6.23;;;5.63;;
3379;SDS011;1703;51.964;7.642;2022-08-01T04:28:51;8.77;;;5.30;;
3379;SDS011;1703;51.964;7.642;2022-08-01T04:31:20;8.00;;;5.80;;
3379;SDS011;1703;51.964;7.642;2022-08-01T04:33:51;12.33;;;6.53;;
3379;SDS011;1703;51.964;7.642;2022-08-01T04:36:20;7.57;;;5.93;;
3379;SDS011;1703;51.964;7.642;2022-08-01T04:38:50;7.57;;;5.70;;
3379;SDS011;1703;51.964;7.642;2022-08-01T04:41:22;5.07;;;4.67;;
3379;SDS011;1703;51.964;7.642;2022-08-01T04:43:50;5.33;;;4.77;;
3379;SDS011;1703;51.964;7.642;2022-08-01T04:46:19;5.43;;;4.60;;
3379;SDS011;1703;51.964;7.642;2022-08-01T04:48:46;5.63;;;4.63;;
3379;SDS011;1703;51.964;7.642;2022-08-01T04:51:15;6.53;;;5.20;;
3379;SDS011;1703;51.964;7.642;2022-08-01T04:53:43;11.13;;;5.43;;
3379;SDS011;1703;51.964;7.642;2022-08-01T04:56:11;10.37;;;3.90;;
3379;SDS011;1703;51.964;7.642;2022-08-01T04:58:40;7.63;;;4.93;;
3379;SDS011;1703;51.964;7.642;2022-08-01T05:01:07;5.60;;;5.10;;
3379;SDS011;1703;51.964;7.642;2022-08-01T05:03:34;5.00;;;4.60;;
3379;SDS011;1703;51.964;7.642;2022-08-01T05:06:01;6.23;;;4.87;;
3379;SDS011;1703;51.964;7.642;2022-08-01T05:08:28;5.20;;;4.43;;
3379;SDS011;1703;51.964;7.642;2022-08-01T05:10:54;6.20;;;5.60;;
3379;SDS011;1703;51.964;7.642;2022-08-01T05:13:21;10.23;;;5.80;;
3379;SDS011;1703;51.964;7.642;2022-08-01T05:15:49;6.00;;;4.63;;
3379;SDS011;1703;51.964;7.642;2022-08-01T05:18:17;5.73;;;4.93;;
3379;SDS011;1703;51.964;7.642;2022-08-01T05:20:44;9.97;;;5.23;;
3379;SDS011;1703;51.964;7.642;2022-08-01T05:23:12;5.17;;;4.70;;
3379;SDS011;1703;51.964;7.642;2022-08-01T05:25:39;6.63;;;5.20;;
3379;SDS011;1703;51.964;7.642;2022-08-01T05:28:06;8.47;;;5.13;;
3379;SDS011;1703;51.964;7.642;2022-08-01T05:30:32;6.60;;;5.00;;
3379;SDS011;1703;51.964;7.642;2022-08-01T05:33:00;6.27;;;5.10;;
3379;SDS011;1703;51.964;7.642;2022-08-01T05:35:27;8.77;;;5.30;;
3379;SDS011;1703;51.964;7.642;2022-08-01T05:37:54;9.23;;;6.17;;
3379;SDS011;1703;51.964;7.642;2022-08-01T05:40:21;8.73;;;6.60;;
3379;SDS011;1703;51.964;7.642;2022-08-01T05:42:48;8.73;;;6.23;;
3379;SDS011;1703;51.964;7.642;2022-08-01T05:45:15;8.13;;;6.80;;
3379;SDS011;1703;51.964;7.642;2022-08-01T05:47:41;7.40;;;5.73;;
3379;SDS011;1703;51.964;7.642;2022-08-01T05:50:10;5.80;;;5.30;;
3379;SDS011;1703;51.964;7.642;2022-08-01T05:52:37;6.10;;;5.50;;
3379;SDS011;1703;51.964;7.642;2022-08-01T05:55:04;5.87;;;5.30;;
3379;SDS011;1703;51.964;7.642;2022-08-01T05:57:32;5.93;;;5.37;;
3379;SDS011;1703;51.964;7.642;2022-08-01T05:59:59;7.63;;;6.13;;
3379;SDS011;1703;51.964;7.642;2022-08-01T06:02:25;10.57;;;7.73;;
3379;SDS011;1703;51.964;7.642;2022-08-01T06:04:52;8.23;;;6.17;;
3379;SDS011;1703;51.964;7.642;2022-08-01T06:07:20;9.33;;;5.83;;
3379;SDS011;1703;51.964;7.642;2022-08-01T06:09:47;5.70;;;4.93;;
3379;SDS011;1703;51.964;7.642;2022-08-01T06:12:14;4.63;;;4.23;;
3379;SDS011;1703;51.964;7.642;2022-08-01T06:14:41;5.63;;;5.10;;
3379;SDS011;1703;51.964;7.642;2022-08-01T06:17:08;5.27;;;4.40;;
3379;SDS011;1703;51.964;7.642;2022-08-01T06:19:34;5.00;;;3.80;;
3379;SDS011;1703;51.964;7.642;2022-08-01T06:22:01;4.30;;;3.87;;
3379;SDS011;1703;51.964;7.642;2022-08-01T06:24:29;4.67;;;4.20;;
3379;SDS011;1703;51.964;7.642;2022-08-01T06:26:56;5.23;;;4.20;;
3379;SDS011;1703;51.964;7.642;2022-08-01T06:29:23;4.57;;;4.13;;
3379;SDS011;1703;51.964;7.642;2022-08-01T06:31:50;5.63;;;5.03;;
3379;SDS011;1703;51.964;7.642;2022-08-01T06:34:17;7.57;;;4.97;;
3379;SDS011;1703;51.964;7.642;2022-08-01T06:36:44;9.43;;;4.97;;
3379;SDS011;1703;51.964;7.642;2022-08-01T06:39:11;4.70;;;4.23;;
3379;SDS011;1703;51.964;7.642;2022-08-01T06:41:39;4.13;;;3.77;;
3379;SDS011;1703;51.964;7.642;2022-08-01T06:44:06;4.50;;;4.10;;
3379;SDS011;1703;51.964;7.642;2022-08-01T06:46:34;7.43;;;4.00;;
3379;SDS011;1703;51.964;7.642;2022-08-01T06:49:01;5.50;;;4.27;;
3379;SDS011;1703;51.964;7.642;2022-08-01T06:51:28;5.27;;;4.77;;
3379;SDS011;1703;51.964;7.642;2022-08-01T06:53:55;3.90;;;3.60;;
3379;SDS011;1703;51.964;7.642;2022-08-01T06:56:31;4.13;;;3.70;;
3379;SDS011;1703;51.964;7.642;2022-08-01T06:59:01;5.00;;;4.50;;
3379;SDS011;1703;51.964;7.642;2022-08-01T07:01:29;4.60;;;3.23;;
3379;SDS011;1703;51.964;7.642;2022-08-01T07:03:56;6.60;;;3.70;;
3379;SDS011;1703;51.964;7.642;2022-08-01T07:06:23;3.90;;;3.20;;
3379;SDS011;1703;51.964;7.642;2022-08-01T07:08:51;3.13;;;2.87;;
3379;SDS011;1703;51.964;7.642;2022-08-01T07:11:19;4.90;;;3.53;;
3379;SDS011;1703;51.964;7.642;2022-08-01T07:13:46;4.13;;;3.47;;
3379;SDS011;1703;51.964;7.642;2022-08-01T07:16:15;3.57;;;3.30;;
3379;SDS011;1703;51.964;7.642;2022-08-01T07:18:42;3.93;;;3.23;;
3379;SDS011;1703;51.964;7.642;2022-08-01T07:21:09;4.47;;;4.07;;
3379;SDS011;1703;51.964;7.642;2022-08-01T07:23:36;4.80;;;4.40;;
3379;SDS011;1703;51.964;7.642;2022-08-01T07:26:03;5.40;;;4.37;;
3379;SDS011;1703;51.964;7.642;2022-08-01T07:28:31;8.47;;;5.90;;
3379;SDS011;1703;51.964;7.642;2022-08-01T07:30:58;5.60;;;5.10;;
3379;SDS011;1703;51.964;7.642;2022-08-01T07:33:27;7.70;;;7.00;;
3379;SDS011;1703;51.964;7.642;2022-08-01T07:35:54;8.53;;;5.87;;
3379;SDS011;1703;51.964;7.642;2022-08-01T07:38:21;8.70;;;7.20;;
3379;SDS011;1703;51.964;7.642;2022-08-01T07:40:48;7.10;;;6.00;;
3379;SDS011;1703;51.964;7.642;2022-08-01T07:43:15;11.70;;;5.73;;
3379;SDS011;1703;51.964;7.642;2022-08-01T07:45:42;6.90;;;6.30;;
3379;SDS011;1703;51.964;7.642;2022-08-01T07:48:09;6.00;;;5.50;;
3379;SDS011;1703;51.964;7.642;2022-08-01T07:50:37;8.13;;;6.13;;
3379;SDS011;1703;51.964;7.642;2022-08-01T07:53:04;6.53;;;5.37;;
3379;SDS011;1703;51.964;7.642;2022-08-01T07:55:31;7.57;;;6.77;;
3379;SDS011;1703;51.964;7.642;2022-08-01T07:57:59;7.50;;;6.00;;
3379;SDS011;1703;51.964;7.642;2022-08-01T08:00:26;5.93;;;5.30;;
3379;SDS011;1703;51.964;7.642;2022-08-01T08:02:53;5.90;;;5.40;;
3379;SDS011;1703;51.964;7.642;2022-08-01T08:05:23;5.60;;;5.00;;
3379;SDS011;1703;51.964;7.642;2022-08-01T08:07:51;7.07;;;6.40;;
3379;SDS011;1703;51.964;7.642;2022-08-01T08:10:19;5.30;;;4.50;;
3379;SDS011;1703;51.964;7.642;2022-08-01T08:12:46;5.57;;;4.93;;
3379;SDS011;1703;51.964;7.642;2022-08-01T08:15:13;5.93;;;5.43;;
3379;SDS011;1703;51.964;7.642;2022-08-01T08:17:40;7.10;;;5.87;;
3379;SDS011;1703;51.964;7.642;2022-08-01T08:20:07;6.47;;;5.77;;
3379;SDS011;1703;51.964;7.642;2022-08-01T08:22:35;5.93;;;5.37;;
3379;SDS011;1703;51.964;7.642;2022-08-01T08:25:04;5.10;;;4.60;;
3379;SDS011;1703;51.964;7.642;2022-08-01T08:27:34;4.87;;;4.47;;
3379;SDS011;1703;51.964;7.642;2022-08-01T08:30:01;6.67;;;6.10;;
3379;SDS011;1703;51.964;7.642;2022-08-01T08:32:28;5.13;;;4.50;;
3379;SDS011;1703;51.964;7.642;2022-08-01T08:34:56;4.80;;;4.40;;
3379;SDS011;1703;51.964;7.642;2022-08-01T08:37:24;4.10;;;3.80;;
3379;SDS011;1703;51.964;7.642;2022-08-01T08:39:50;4.70;;;4.30;;
3379;SDS011;1703;51.964;7.642;2022-08-01T08:42:20;4.83;;;4.20;;
3379;SDS011;1703;51.964;7.642;2022-08-01T08:44:47;4.50;;;4.07;;
3379;SDS011;1703;51.964;7.642;2022-08-01T08:47:19;5.73;;;4.13;;
3379;SDS011;1703;51.964;7.642;2022-08-01T08:49:49;3.57;;;3.27;;
3379;SDS011;1703;51.964;7.642;2022-08-01T08:52:17;3.53;;;3.30;;
3379;SDS011;1703;51.964;7.642;2022-08-01T08:54:47;5.83;;;2.93;;
3379;SDS011;1703;51.964;7.642;2022-08-01T08:57:15;5.03;;;4.53;;
3379;SDS011;1703;51.964;7.642;2022-08-01T08:59:46;3.93;;;3.50;;
3379;SDS011;1703;51.964;7.642;2022-08-01T09:02:13;3.50;;;3.30;;
3379;SDS011;1703;51.964;7.642;2022-08-01T09:04:42;3.80;;;3.50;;
3379;SDS011;1703;51.964;7.642;2022-08-01T09:07:09;4.77;;;4.00;;
3379;SDS011;1703;51.964;7.642;2022-08-01T09:09:39;5.23;;;4.77;;
3379;SDS011;1703;51.964;7.642;2022-08-01T09:12:07;5.47;;;4.90;;
3379;SDS011;1703;51.964;7.642;2022-08-01T09:14:43;5.27;;;4.87;;
3379;SDS011;1703;51.964;7.642;2022-08-01T09:17:15;6.53;;;5.03;;
3379;SDS011;1703;51.964;7.642;2022-08-01T09:19:43;6.20;;;4.50;;
3379;SDS011;1703;51.964;7.642;2022-08-01T09:22:13;3.93;;;3.50;;
3379;SDS011;1703;51.964;7.642;2022-08-01T09:24:52;4.37;;;4.07;;
3379;SDS011;1703;51.964;7.642;2022-08-01T09:27:24;4.80;;;3.53;;
3379;SDS011;1703;51.964;7.642;2022-08-01T09:29:54;3.30;;;3.10;;
3379;SDS011;1703;51.964;7.642;2022-08-01T09:32:34;3.27;;;2.97;;
3379;SDS011;1703;51.964;7.642;2022-08-01T09:35:03;7.80;;;3.10;;
3379;SDS011;1703;51.964;7.642;2022-08-01T09:37:49;3.17;;;2.97;;
3379;SDS011;1703;51.964;7.642;2022-08-01T09:40:16;4.00;;;3.57;;
3379;SDS011;1703;51.964;7.642;2022-08-01T09:42:42;4.00;;;3.70;;
3379;SDS011;1703;51.964;7.642;2022-08-01T09:48:05;4.13;;;3.83;;
3379;SDS011;1703;51.964;7.642;2022-08-01T09:50:49;4.87;;;4.37;;
3379;SDS011;1703;51.964;7.642;2022-08-01T09:53:17;4.87;;;3.77;;
3379;SDS011;1703;51.964;7.642;2022-08-01T09:55:45;8.23;;;4.23;;
3379;SDS011;1703;51.964;7.642;2022-08-01T09:58:12;5.97;;;4.17;;
3379;SDS011;1703;51.964;7.642;2022-08-01T10:00:41;4.00;;;3.70;;
3379;SDS011;1703;51.964;7.642;2022-08-01T10:03:20;6.50;;;3.87;;
3379;SDS011;1703;51.964;7.642;2022-08-01T10:05:48;4.13;;;3.60;;
3379;SDS011;1703;51.964;7.642;2022-08-01T10:08:16;8.50;;;4.67;;
3379;SDS011;1703;51.964;7.642;2022-08-01T10:10:46;5.07;;;4.70;;
3379;SDS011;1703;51.964;7.642;2022-08-01T10:13:32;5.80;;;4.33;;
3379;SDS011;1703;51.964;7.642;2022-08-01T10:16:01;4.07;;;3.73;;
3379;SDS011;1703;51.964;7.642;2022-08-01T10:18:31;4.87;;;3.20;;
3379;SDS011;1703;51.964;7.642;2022-08-01T10:20:58;4.07;;;3.07;;
3379;SDS011;1703;51.964;7.642;2022-08-01T10:23:27;3.70;;;3.43;;
3379;SDS011;1703;51.964;7.642;2022-08-01T10:25:59;3.83;;;3.53;;
3379;SDS011;1703;51.964;7.642;2022-08-01T10:28:26;3.13;;;2.93;;
3379;SDS011;1703;51.964;7.642;2022-08-01T10:30:56;5.93;;;3.37;;
3379;SDS011;1703;51.964;7.642;2022-08-01T10:33:25;5.80;;;4.13;;
3379;SDS011;1703;51.964;7.642;2022-08-01T10:35:52;7.80;;;3.73;;
3379;SDS011;1703;51.964;7.642;2022-08-01T10:38:19;7.37;;;3.90;;
3379;SDS011;1703;51.964;7.642;2022-08-01T10:40:46;4.13;;;3.80;;
3379;SDS011;1703;51.964;7.642;2022-08-01T10:43:13;4.63;;;4.23;;
3379;SDS011;1703;51.964;7.642;2022-08-01T10:45:42;5.07;;;4.00;;
3379;SDS011;1703;51.964;7.642;2022-08-01T10:48:11;8.47;;;4.20;;
3379;SDS011;1703;51.964;7.642;2022-08-01T10:50:44;6.27;;;3.70;;
3379;SDS011;1703;51.964;7.642;2022-08-01T10:53:14;8.30;;;4.23;;
3379;SDS011;1703;51.964;7.642;2022-08-01T10:55:46;7.77;;;4.80;;
3379;SDS011;1703;51.964;7.642;2022-08-01T10:58:14;7.83;;;4.10;;
3379;SDS011;1703;51.964;7.642;2022-08-01T11:00:46;5.37;;;4.50;;
3379;SDS011;1703;51.964;7.642;2022-08-01T11:03:13;5.27;;;4.80;;
3379;SDS011;1703;51.964;7.642;2022-08-01T11:05:40;11.83;;;5.37;;
3379;SDS011;1703;51.964;7.642;2022-08-01T11:08:12;7.70;;;5.57;;
3379;SDS011;1703;51.964;7.642;2022-08-01T11:10:47;6.13;;;5.40;;
3379;SDS011;1703;51.964;7.642;2022-08-01T11:13:14;7.40;;;5.17;;
3379;SDS011;1703;51.964;7.642;2022-08-01T11:16:25;6.57;;;4.80;;
3379;SDS011;1703;51.964;7.642;2022-08-01T11:18:53;7.50;;;5.17;;
3379;SDS011;1703;51.964;7.642;2022-08-01T11:21:21;5.57;;;4.93;;
3379;SDS011;1703;51.964;7.642;2022-08-01T11:23:51;7.30;;;3.90;;
3379;SDS011;1703;51.964;7.642;2022-08-01T11:26:18;5.07;;;4.57;;
3379;SDS011;1703;51.964;7.642;2022-08-01T11:28:46;4.77;;;4.20;;
3379;SDS011;1703;51.964;7.642;2022-08-01T11:31:38;5.93;;;3.93;;
3379;SDS011;1703;51.964;7.642;2022-08-01T11:34:05;6.97;;;4.70;;
3379;SDS011;1703;51.964;7.642;2022-08-01T11:36:33;4.90;;;4.43;;
3379;SDS011;1703;51.964;7.642;2022-08-01T11:39:11;5.93;;;4.20;;
3379;SDS011;1703;51.964;7.642;2022-08-01T11:41:39;7.43;;;4.83;;
3379;SDS011;1703;51.964;7.642;2022-08-01T11:44:08;7.90;;;4.83;;
3379;SDS011;1703;51.964;7.642;2022-08-01T11:49:43;8.27;;;5.60;;
3379;SDS011;1703;51.964;7.642;2022-08-01T11:52:24;6.27;;;5.33;;
3379;SDS011;1703;51.964;7.642;2022-08-01T11:54:53;9.13;;;6.80;;
3379;SDS011;1703;51.964;7.642;2022-08-01T11:57:22;9.10;;;7.90;;
3379;SDS011;1703;51.964;7.642;2022-08-01T11:59:52;9.93;;;8.03;;
3379;SDS011;1703;51.964;7.642;2022-08-01T12:02:21;11.50;;;8.10;;
3379;SDS011;1703;51.964;7.642;2022-08-01T12:04:50;10.27;;;8.73;;
3379;SDS011;1703;51.964;7.642;2022-08-01T12:07:20;22.33;;;10.40;;
3379;SDS011;1703;51.964;7.642;2022-08-01T12:09:56;14.40;;;10.40;;
3379;SDS011;1703;51.964;7.642;2022-08-01T12:12:25;8.60;;;7.23;;
3379;SDS011;1703;51.964;7.642;2022-08-01T12:14:54;8.73;;;7.83;;
3379;SDS011;1703;51.964;7.642;2022-08-01T12:17:32;9.17;;;7.63;;
3379;SDS011;1703;51.964;7.642;2022-08-01T12:20:00;9.60;;;7.13;;
3379;SDS011;1703;51.964;7.642;2022-08-01T12:22:28;8.03;;;7.23;;
3379;SDS011;1703;51.964;7.642;2022-08-01T12:24:56;7.60;;;6.80;;
3379;SDS011;1703;51.964;7.642;2022-08-01T12:27:31;9.77;;;8.87;;
3379;SDS011;1703;51.964;7.642;2022-08-01T12:29:58;10.40;;;7.07;;
3379;SDS011;1703;51.964;7.642;2022-08-01T12:32:26;8.63;;;7.83;;
3379;SDS011;1703;51.964;7.642;2022-08-01T12:34:56;10.07;;;9.07;;
3379;SDS011;1703;51.964;7.642;2022-08-01T12:37:26;9.43;;;8.30;;
3379;SDS011;1703;51.964;7.642;2022-08-01T12:39:53;9.47;;;7.97;;
3379;SDS011;1703;51.964;7.642;2022-08-01T12:42:21;8.50;;;7.70;;
3379;SDS011;1703;51.964;7.642;2022-08-01T12:44:48;11.80;;;8.00;;
3379;SDS011;1703;51.964;7.642;2022-08-01T12:47:17;11.03;;;8.17;;
3379;SDS011;1703;51.964;7.642;2022-08-01T12:49:46;8.90;;;8.00;;
3379;SDS011;1703;51.964;7.642;2022-08-01T12:52:13;11.30;;;8.90;;
3379;SDS011;1703;51.964;7.642;2022-08-01T12:57:30;10.87;;;8.50;;
3379;SDS011;1703;51.964;7.642;2022-08-01T13:00:07;10.30;;;9.30;;
3379;SDS011;1703;51.964;7.642;2022-08-01T13:02:46;11.03;;;8.77;;
3379;SDS011;1703;51.964;7.642;2022-08-01T13:05:13;12.73;;;8.93;;
3379;SDS011;1703;51.964;7.642;2022-08-01T13:07:42;9.53;;;8.73;;
3379;SDS011;1703;51.964;7.642;2022-08-01T13:10:11;10.30;;;8.17;;
3379;SDS011;1703;51.964;7.642;2022-08-01T13:12:42;9.93;;;9.03;;
3379;SDS011;1703;51.964;7.642;2022-08-01T13:15:22;9.77;;;8.77;;
3379;SDS011;1703;51.964;7.642;2022-08-01T13:17:52;9.33;;;7.47;;
3379;SDS011;1703;51.964;7.642;2022-08-01T13:20:30;9.73;;;8.63;;
3379;SDS011;1703;51.964;7.642;2022-08-01T13:23:15;10.17;;;6.87;;
3379;SDS011;1703;51.964;7.642;2022-08-01T13:25:50;7.63;;;6.43;;
3379;SDS011;1703;51.964;7.642;2022-08-01T13:28:21;8.20;;;3.77;;
3379;SDS011;1703;51.964;7.642;2022-08-01T13:30:52;6.53;;;4.10;;
3379;SDS011;1703;51.964;7.642;2022-08-01T13:33:21;4.40;;;2.87;;
3379;SDS011;1703;51.964;7.642;2022-08-01T13:35:49;4.00;;;2.30;;
3379;SDS011;1703;51.964;7.642;2022-08-01T13:38:17;7.23;;;2.13;;
3379;SDS011;1703;51.964;7.642;2022-08-01T13:40:44;1.70;;;1.60;;
3379;SDS011;1703;51.964;7.642;2022-08-01T13:43:10;7.23;;;3.13;;
3379;SDS011;1703;51.964;7.642;2022-08-01T13:45:38;7.97;;;2.50;;
3379;SDS011;1703;51.964;7.642;2022-08-01T13:48:06;5.70;;;2.30;;
3379;SDS011;1703;51.964;7.642;2022-08-01T13:50:33;2.70;;;2.50;;
3379;SDS011;1703;51.964;7.642;2022-08-01T13:53:00;3.30;;;2.23;;
3379;SDS011;1703;51.964;7.642;2022-08-01T13:55:27;7.50;;;2.43;;
3379;SDS011;1703;51.964;7.642;2022-08-01T13:57:53;2.87;;;2.57;;
3379;SDS011;1703;51.964;7.642;2022-08-01T14:00:20;3.23;;;2.00;;
3379;SDS011;1703;51.964;7.642;2022-08-01T14:02:48;4.90;;;2.50;;
3379;SDS011;1703;51.964;7.642;2022-08-01T14:05:15;4.43;;;2.03;;
3379;SDS011;1703;51.964;7.642;2022-08-01T14:07:42;7.20;;;2.53;;
3379;SDS011;1703;51.964;7.642;2022-08-01T14:10:09;8.63;;;3.20;;
3379;SDS011;1703;51.964;7.642;2022-08-01T14:12:36;3.97;;;2.53;;
3379;SDS011;1703;51.964;7.642;2022-08-01T14:15:03;4.10;;;3.00;;
3379;SDS011;1703;51.964;7.642;2022-08-01T14:17:31;15.43;;;4.43;;
3379;SDS011;1703;51.964;7.642;2022-08-01T14:20:00;5.07;;;2.87;;
3379;SDS011;1703;51.964;7.642;2022-08-01T14:22:27;6.60;;;3.20;;
3379;SDS011;1703;51.964;7.642;2022-08-01T14:24:54;4.13;;;2.80;;
3379;SDS011;1703;51.964;7.642;2022-08-01T14:27:21;6.77;;;3.90;;
3379;SDS011;1703;51.964;7.642;2022-08-01T14:29:48;8.83;;;3.67;;
3379;SDS011;1703;51.964;7.642;2022-08-01T14:32:15;5.53;;;2.80;;
3379;SDS011;1703;51.964;7.642;2022-08-01T14:34:41;3.30;;;2.97;;
3379;SDS011;1703;51.964;7.642;2022-08-01T14:37:09;4.93;;;3.30;;
3379;SDS011;1703;51.964;7.642;2022-08-01T14:39:36;6.83;;;3.27;;
3379;SDS011;1703;51.964;7.642;2022-08-01T14:42:03;7.63;;;2.83;;
3379;SDS011;1703;51.964;7.642;2022-08-01T14:44:30;5.30;;;3.10;;
3379;SDS011;1703;51.964;7.642;2022-08-01T14:46:57;6.70;;;3.30;;
3379;SDS011;1703;51.964;7.642;2022-08-01T14:49:24;4.90;;;3.10;;
3379;SDS011;1703;51.964;7.642;2022-08-01T14:51:51;8.07;;;3.70;;
3379;SDS011;1703;51.964;7.642;2022-08-01T14:54:19;3.93;;;3.17;;
3379;SDS011;1703;51.964;7.642;2022-08-01T14:56:46;7.63;;;2.77;;
3379;SDS011;1703;51.964;7.642;2022-08-01T14:59:12;9.83;;;4.00;;
3379;SDS011;1703;51.964;7.642;2022-08-01T15:01:39;6.90;;;4.43;;
3379;SDS011;1703;51.964;7.642;2022-08-01T15:04:06;4.40;;;2.70;;
3379;SDS011;1703;51.964;7.642;2022-08-01T15:06:33;6.80;;;3.40;;
3379;SDS011;1703;51.964;7.642;2022-08-01T15:09:00;4.23;;;2.87;;
3379;SDS011;1703;51.964;7.642;2022-08-01T15:11:28;3.67;;;2.87;;
3379;SDS011;1703;51.964;7.642;2022-08-01T15:13:55;9.20;;;3.60;;
3379;SDS011;1703;51.964;7.642;2022-08-01T15:16:35;11.40;;;3.60;;
3379;SDS011;1703;51.964;7.642;2022-08-01T15:19:03;10.23;;;3.90;;
3379;SDS011;1703;51.964;7.642;2022-08-01T15:21:33;6.50;;;2.83;;
3379;SDS011;1703;51.964;7.642;2022-08-01T15:24:00;8.73;;;3.67;;
3379;SDS011;1703;51.964;7.642;2022-08-01T15:26:28;9.47;;;4.23;;
3379;SDS011;1703;51.964;7.642;2022-08-01T15:28:55;3.87;;;3.50;;
3379;SDS011;1703;51.964;7.642;2022-08-01T15:31:21;4.03;;;2.67;;
3379;SDS011;1703;51.964;7.642;2022-08-01T15:33:48;3.63;;;2.47;;